Time;durP1;ratioP1;P1;durP2;ratioP2;P2;SDS_P1;SDS_P2;PMS_P1;PMS_P2;Temp;Humidity;BMP_temperature;BMP_pressure;BME280_temperature;BME280_humidity;BME280_pressure;Samples;Min_cycle;Max_cycle;Signal;HPM_P1;HPM_P2
2023/01/22 00:01:11;;;;;;;18.70;7.90;;;;;;;-140.72;100.00;53433.97;6246684;22;20027;-69
2023/01/22 00:03:38;;;;;;;14.45;8.35;;;;;;;-140.72;100.00;53399.47;6272453;22;20003;-68
2023/01/22 00:06:05;;;;;;;12.18;7.43;;;;;;;-140.72;100.00;53431.94;6272772;22;20023;-69
2023/01/22 00:08:30;;;;;;;13.55;8.10;;;;;;;-140.72;100.00;53421.78;6272590;22;20003;-70
2023/01/22 00:10:56;;;;;;;16.13;8.70;;;;;;;-140.72;100.00;53464.41;6273508;22;19996;-68
2023/01/22 00:13:25;;;;;;;13.77;7.60;;;;;;;-140.72;100.00;53427.88;6273575;22;19999;-70
2023/01/22 00:15:51;;;;;;;;;;;;;;;-140.72;100.00;53454.25;6272397;22;20426;-70
2023/01/22 00:18:17;;;;;;;11.10;7.18;;;;;;;-140.72;100.00;53462.38;6272671;22;19903;-69
2023/01/22 00:20:47;;;;;;;13.65;8.20;;;;;;;-140.72;100.00;53446.13;6272662;22;20474;-69
2023/01/22 00:23:13;;;;;;;;;;;;;;;-140.72;100.00;53429.91;6272886;22;20000;-68
2023/01/22 00:25:39;;;;;;;13.93;7.63;;;;;;;-140.72;100.00;53431.94;6272845;22;20324;-68
2023/01/22 00:28:07;;;;;;;13.30;7.63;;;;;;;-140.72;100.00;53421.78;6273447;22;19996;-68
2023/01/22 00:30:33;;;;;;;11.43;8.05;;;;;;;-140.72;100.00;53417.72;6272303;22;19996;-68
2023/01/22 00:32:58;;;;;;;14.75;8.00;;;;;;;-140.72;100.00;53448.16;6273134;22;20470;-69
2023/01/22 00:35:24;;;;;;;18.10;7.95;;;;;;;-140.72;100.00;53431.94;6273328;22;20065;-70
2023/01/22 00:37:49;;;;;;;18.05;8.55;;;;;;;-140.72;100.00;53462.38;6273425;22;20003;-69
2023/01/22 00:40:15;;;;;;;17.38;9.05;;;;;;;-140.72;100.00;53433.97;6273122;22;20423;-69
2023/01/22 00:42:41;;;;;;;13.13;8.75;;;;;;;-140.72;100.00;53450.19;6273077;22;20046;-70
2023/01/22 00:45:12;;;;;;;15.75;7.80;;;;;;;-140.72;100.00;53413.66;6272801;22;19996;-68
2023/01/22 00:47:38;;;;;;;15.80;7.68;;;;;;;-140.72;100.00;53452.22;6271963;22;20491;-70
2023/01/22 00:50:03;;;;;;;18.20;7.63;;;;;;;-140.72;100.00;53450.19;6273119;22;20074;-69
2023/01/22 00:52:29;;;;;;;10.43;6.53;;;;;;;-140.72;100.00;53442.09;6272259;22;20306;-69
2023/01/22 00:54:54;;;;;;;14.43;8.13;;;;;;;-140.72;100.00;53446.13;6273273;22;20431;-69
2023/01/22 00:57:20;;;;;;;13.80;8.23;;;;;;;-140.72;100.00;53427.88;6273841;22;20313;-69
2023/01/22 00:59:49;;;;;;;15.27;7.95;;;;;;;-140.72;100.00;53421.78;6271944;22;20000;-69
2023/01/22 01:02:14;;;;;;;15.50;8.07;;;;;;;-140.72;100.00;53427.88;6273848;22;20006;-69
2023/01/22 01:04:40;;;;;;;13.98;7.25;;;;;;;-140.72;100.00;53456.28;6273492;22;20004;-69
2023/01/22 01:07:06;;;;;;;18.30;10.57;;;;;;;-140.72;100.00;53413.66;6274817;22;20548;-69
2023/01/22 01:09:31;;;;;;;11.75;8.38;;;;;;;-140.72;100.00;53456.28;6274521;22;20045;-69
2023/01/22 01:11:59;;;;;;;16.65;8.93;;;;;;;-140.72;100.00;53419.75;6274636;22;20050;-68
2023/01/22 01:14:25;;;;;;;17.83;10.43;;;;;;;-140.72;100.00;53417.72;6274524;22;20414;-70
2023/01/22 01:16:50;;;;;;;18.65;8.65;;;;;;;-140.72;100.00;53411.63;6275190;22;20041;-70
2023/01/22 01:19:16;;;;;;;16.27;9.52;;;;;;;-140.72;100.00;53409.59;6271944;22;20003;-68
2023/01/22 01:21:42;;;;;;;19.52;9.88;;;;;;;-140.72;100.00;53444.13;6274709;22;19996;-70
2023/01/22 01:24:09;;;;;;;17.38;8.70;;;;;;;-140.72;100.00;53395.41;6274245;22;20002;-68
2023/01/22 01:26:35;;;;;;;19.33;10.38;;;;;;;-140.72;100.00;53395.41;6273707;22;20008;-69
2023/01/22 01:29:03;;;;;;;14.25;7.95;;;;;;;-140.72;100.00;53405.56;6274914;22;19995;-69
2023/01/22 01:31:29;;;;;;;17.48;8.02;;;;;;;-140.72;100.00;53450.19;6274716;22;20283;-68
2023/01/22 01:33:55;;;;;;;15.90;9.05;;;;;;;-140.72;100.00;53387.28;6273522;22;20027;-70
2023/01/22 01:36:23;;;;;;;17.02;9.07;;;;;;;-140.72;100.00;53413.66;6274600;22;20394;-69
2023/01/22 01:38:49;;;;;;;14.25;8.20;;;;;;;-140.72;100.00;53401.50;6274776;22;20394;-70
2023/01/22 01:41:20;;;;;;;13.38;8.63;;;;;;;-140.72;100.00;53391.34;6274211;22;20080;-69
2023/01/22 01:44:13;;;;;;;14.05;8.05;;;;;;;-140.72;100.00;53411.63;6270463;22;20018;-70
2023/01/22 01:46:48;;;;;;;18.88;7.70;;;;;;;-140.72;100.00;53401.50;6272208;22;20003;-71
2023/01/22 01:49:26;;;;;;;14.82;8.02;;;;;;;-140.72;100.00;53409.59;6274418;22;20435;-69
2023/01/22 01:51:55;;;;;;;16.38;7.80;;;;;;;-140.72;100.00;53375.09;6274362;22;20075;-69
2023/01/22 01:54:20;;;;;;;21.15;8.32;;;;;;;-140.72;100.00;53415.69;6273572;22;20006;-70
2023/01/22 01:56:50;;;;;;;15.68;7.70;;;;;;;-140.72;100.00;53442.09;6273944;22;20027;-70
2023/01/22 01:59:18;;;;;;;12.00;7.93;;;;;;;-140.72;100.00;53405.56;6274588;22;20011;-68
2023/01/22 02:01:48;;;;;;;17.65;7.80;;;;;;;-140.72;100.00;53381.19;6272815;22;20011;-69
2023/01/22 02:04:14;;;;;;;19.25;7.35;;;;;;;-140.72;100.00;53371.03;6274583;22;20074;-69
2023/01/22 02:06:40;;;;;;;11.35;7.05;;;;;;;-140.72;100.00;53405.56;6271903;22;20073;-68
2023/01/22 02:09:05;;;;;;;10.90;8.23;;;;;;;-140.72;100.00;53401.50;6273789;22;20137;-70
2023/01/22 02:11:32;;;;;;;13.55;7.30;;;;;;;-140.72;100.00;53401.50;6273818;22;20342;-70
2023/01/22 02:14:25;;;;;;;13.13;8.38;;;;;;;-140.72;100.00;53399.47;6273540;22;20003;-70
2023/01/22 02:17:01;;;;;;;14.98;7.63;;;;;;;-140.72;100.00;53421.78;6273731;22;19999;-69
2023/01/22 02:19:29;;;;;;;9.00;6.43;;;;;;;-140.72;100.00;53407.56;6273910;22;20309;-69
2023/01/22 02:21:55;;;;;;;13.30;8.68;;;;;;;-140.72;100.00;53358.88;6273789;22;20301;-69
2023/01/22 02:24:20;;;;;;;12.90;7.25;;;;;;;-140.72;100.00;53403.53;6273362;22;20070;-68
2023/01/22 02:26:45;;;;;;;11.55;6.45;;;;;;;-140.72;100.00;53425.84;6274050;22;20004;-68
2023/01/22 02:29:12;;;;;;;12.10;7.85;;;;;;;-140.72;100.00;53377.13;6272981;22;20003;-69
2023/01/22 02:31:39;;;;;;;11.60;5.78;;;;;;;-140.72;100.00;53389.31;6274053;22;20000;-69
2023/01/22 02:34:05;;;;;;;15.02;8.30;;;;;;;-140.72;100.00;53397.44;6273508;22;20004;-70
2023/01/22 02:36:33;;;;;;;8.45;5.30;;;;;;;-140.72;100.00;53397.44;6272642;22;20058;-69
2023/01/22 02:38:58;;;;;;;10.90;5.57;;;;;;;-140.72;100.00;53379.16;6273208;22;20310;-70
2023/01/22 02:41:24;;;;;;;9.93;5.82;;;;;;;-140.72;100.00;53417.72;6274003;22;20007;-69
2023/01/22 02:43:50;;;;;;;11.75;7.07;;;;;;;-140.72;100.00;53377.13;6272541;22;20003;-69
2023/01/22 02:46:16;;;;;;;11.38;6.45;;;;;;;-140.72;100.00;53403.53;6274093;22;20027;-69
2023/01/22 02:48:41;;;;;;;10.50;6.60;;;;;;;-140.72;100.00;53417.72;6274002;22;20000;-70
2023/01/22 02:51:07;;;;;;;11.48;6.78;;;;;;;-140.72;100.00;53409.59;6273477;22;20490;-69
2023/01/22 02:53:32;;;;;;;11.15;6.40;;;;;;;-140.72;100.00;53367.00;6272999;22;19995;-69
2023/01/22 02:55:58;;;;;;;10.45;5.93;;;;;;;-140.72;100.00;53371.03;6273920;22;20280;-70
2023/01/22 02:58:24;;;;;;;10.63;5.45;;;;;;;-140.72;100.00;53407.56;6269642;22;20368;-69
2023/01/22 03:00:49;;;;;;;7.80;5.13;;;;;;;-140.72;100.00;53389.31;6273939;22;19996;-69
2023/01/22 03:03:14;;;;;;;9.68;5.60;;;;;;;-140.72;100.00;53371.03;6273334;22;20402;-69
2023/01/22 03:05:52;;;;;;;11.02;6.00;;;;;;;-140.72;100.00;53395.41;6272118;22;20042;-69
2023/01/22 03:08:18;;;;;;;14.57;7.00;;;;;;;-140.72;100.00;53403.53;6273054;22;20031;-70
2023/01/22 03:10:47;;;;;;;10.35;6.22;;;;;;;-140.72;100.00;53405.56;6273500;22;20023;-69
2023/01/22 03:21:30;;;;;;;9.80;5.90;;;;;;;-140.72;100.00;53373.06;6273506;22;20069;-69
2023/01/22 03:23:56;;;;;;;9.48;6.43;;;;;;;-140.72;100.00;53389.31;6272938;22;20004;-70
2023/01/22 03:26:22;;;;;;;8.70;5.40;;;;;;;-140.72;100.00;53387.28;6273112;22;20075;-69
2023/01/22 03:28:51;;;;;;;10.82;6.13;;;;;;;-140.72;100.00;53377.13;6273467;22;19996;-71
2023/01/22 03:31:17;;;;;;;9.30;5.22;;;;;;;-140.72;100.00;53391.34;6273330;22;20402;-69
2023/01/22 03:33:43;;;;;;;8.25;4.63;;;;;;;-140.72;100.00;53344.66;6268672;22;20037;-70
2023/01/22 03:36:13;;;;;;;11.20;6.70;;;;;;;-140.72;100.00;53377.13;6270740;22;20303;-69
2023/01/22 03:38:39;;;;;;;9.25;4.72;;;;;;;-140.72;100.00;53397.44;6272819;22;20026;-68
2023/01/22 03:41:09;;;;;;;12.30;6.10;;;;;;;-140.72;100.00;53377.13;6271476;22;20015;-70
2023/01/22 03:43:35;;;;;;;14.45;6.15;;;;;;;-140.72;100.00;53431.94;6270270;22;19995;-69
2023/01/22 03:46:12;;;;;;;8.75;5.28;;;;;;;-140.72;100.00;53375.09;6271825;22;20000;-69
2023/01/22 03:48:38;;;;;;;8.45;5.57;;;;;;;-140.72;100.00;53429.91;6271087;22;20000;-69
2023/01/22 03:51:16;;;;;;;9.60;5.10;;;;;;;-140.72;100.00;53389.31;6271573;22;20034;-69
2023/01/22 03:53:43;;;;;;;8.50;5.47;;;;;;;-140.72;100.00;53395.41;6271009;22;20026;-70
2023/01/22 03:56:14;;;;;;;9.48;6.00;;;;;;;-140.72;100.00;53415.69;6271712;22;20474;-70
2023/01/22 03:58:39;;;;;;;12.13;7.00;;;;;;;-140.72;100.00;53377.13;6271543;22;20437;-68
2023/01/22 04:01:08;;;;;;;12.00;6.93;;;;;;;-140.72;100.00;53352.78;6271315;22;19995;-69
2023/01/22 04:03:34;;;;;;;10.95;6.78;;;;;;;-140.72;100.00;53367.00;6272045;22;20023;-69
2023/01/22 04:06:00;;;;;;;12.35;5.95;;;;;;;-140.72;100.00;53383.22;6271826;22;19991;-69
2023/01/22 04:08:30;;;;;;;9.60;5.93;;;;;;;-140.72;100.00;53373.06;6270727;22;20310;-69
2023/01/22 04:10:59;;;;;;;11.80;6.85;;;;;;;-140.72;100.00;53413.66;6272263;22;20406;-70
2023/01/22 04:13:25;;;;;;;9.73;5.77;;;;;;;-140.72;100.00;53403.53;6269791;22;20010;-71
2023/01/22 04:15:54;;;;;;;9.25;5.75;;;;;;;-140.72;100.00;53373.06;6271542;22;20265;-69
2023/01/22 04:18:20;;;;;;;8.35;5.45;;;;;;;-140.72;100.00;53421.78;6271918;22;20022;-69
2023/01/22 04:20:50;;;;;;;10.32;5.68;;;;;;;-140.72;100.00;53387.28;6271654;22;20071;-69
2023/01/22 04:23:15;;;;;;;7.28;4.93;;;;;;;-140.72;100.00;53389.31;6270279;22;20017;-69
2023/01/22 04:25:42;;;;;;;10.85;5.72;;;;;;;-140.72;100.00;53334.50;6270750;22;19995;-71
2023/01/22 04:28:09;;;;;;;10.77;6.05;;;;;;;-140.72;100.00;53401.50;6271230;22;20000;-69
2023/01/22 04:30:35;;;;;;;9.90;6.10;;;;;;;-140.72;100.00;53389.31;6270349;22;20004;-69
2023/01/22 04:33:00;;;;;;;7.75;4.30;;;;;;;-140.72;100.00;53393.38;6271203;22;20007;-70
2023/01/22 04:35:26;;;;;;;8.75;4.40;;;;;;;-140.72;100.00;53350.75;6270638;22;20003;-71
2023/01/22 04:37:52;;;;;;;9.65;5.70;;;;;;;-140.72;100.00;53411.63;6270529;22;20382;-70
2023/01/22 04:40:19;;;;;;;8.27;6.18;;;;;;;-140.72;100.00;53401.50;6271942;22;20022;-70
2023/01/22 04:42:44;;;;;;;10.65;5.13;;;;;;;-140.72;100.00;53360.91;6270768;22;20061;-71
2023/01/22 04:45:10;;;;;;;9.15;6.65;;;;;;;-140.72;100.00;53364.97;6271515;22;19999;-68
2023/01/22 04:47:40;;;;;;;7.63;5.47;;;;;;;-140.72;100.00;53354.81;6271276;22;20006;-71
2023/01/22 04:50:05;;;;;;;;;;;;;;;-140.72;100.00;53369.00;6271675;22;20003;-68
2023/01/22 04:52:30;;;;;;;10.07;6.63;;;;;;;-140.72;100.00;53373.06;6271005;22;20193;-69
2023/01/22 04:54:56;;;;;;;14.55;6.30;;;;;;;-140.72;100.00;53425.84;6271509;22;20004;-69
2023/01/22 04:57:24;;;;;;;9.38;4.90;;;;;;;-140.72;100.00;53405.56;6270566;22;20030;-71
2023/01/22 04:59:49;;;;;;;9.82;5.68;;;;;;;-140.72;100.00;53401.50;6271886;22;20338;-69
2023/01/22 05:02:15;;;;;;;8.55;5.45;;;;;;;-140.72;100.00;53393.38;6271067;22;20050;-70
2023/01/22 05:04:40;;;;;;;9.52;5.75;;;;;;;-140.72;100.00;53389.31;6270552;22;20010;-71
2023/01/22 05:07:05;;;;;;;13.77;5.78;;;;;;;-140.72;100.00;53405.56;6271274;22;19996;-71
2023/01/22 05:09:31;;;;;;;10.93;6.10;;;;;;;-140.72;100.00;53403.53;6270915;22;19995;-70
2023/01/22 05:11:56;;;;;;;7.07;4.03;;;;;;;-140.72;100.00;53385.25;6270826;22;20349;-71
2023/01/22 05:14:22;;;;;;;10.13;4.47;;;;;;;-140.72;100.00;53405.56;6270907;22;19999;-70
2023/01/22 05:16:48;;;;;;;8.75;4.78;;;;;;;-140.72;100.00;53393.38;6271087;22;20006;-71
2023/01/22 05:19:13;;;;;;;8.57;4.68;;;;;;;-140.72;100.00;53405.56;6270531;22;20106;-69
2023/01/22 05:21:38;;;;;;;7.85;4.90;;;;;;;-140.72;100.00;53373.06;6271419;22;20418;-68
2023/01/22 05:24:04;;;;;;;11.73;5.13;;;;;;;-140.72;100.00;53389.31;6271343;22;19999;-69
2023/01/22 05:26:29;;;;;;;8.35;4.25;;;;;;;-140.72;100.00;53395.41;6243305;22;20027;-70
2023/01/22 05:28:55;;;;;;;8.18;5.63;;;;;;;-140.72;100.00;53385.25;6270962;22;19996;-70
2023/01/22 05:31:20;;;;;;;9.10;5.13;;;;;;;-140.72;100.00;53409.59;6271572;22;20007;-69
2023/01/22 05:33:45;;;;;;;8.50;4.65;;;;;;;-140.72;100.00;53436.00;6269640;22;20006;-69
2023/01/22 05:36:13;;;;;;;11.43;4.95;;;;;;;-140.72;100.00;53377.13;6270678;22;20090;-69
2023/01/22 05:38:39;;;;;;;9.23;6.00;;;;;;;-140.72;100.00;53403.53;6270949;22;20007;-69
2023/01/22 05:41:04;;;;;;;8.18;4.70;;;;;;;-140.72;100.00;53364.97;6270562;22;19995;-69
2023/01/22 05:43:30;;;;;;;7.35;4.35;;;;;;;-140.72;100.00;53377.13;6271004;22;20431;-69
2023/01/22 05:46:00;;;;;;;8.90;4.35;;;;;;;-140.72;100.00;53373.06;6270383;22;20857;-70
2023/01/22 05:48:25;;;;;;;8.77;5.18;;;;;;;-140.72;100.00;53371.03;6271809;22;20011;-68
2023/01/22 05:50:51;;;;;;;9.23;5.55;;;;;;;-140.72;100.00;53415.69;6272747;22;20007;-70
2023/01/22 05:53:16;;;;;;;6.95;4.70;;;;;;;-140.72;100.00;53362.94;6272173;22;20126;-70
2023/01/22 05:55:41;;;;;;;7.70;4.80;;;;;;;-140.72;100.00;53360.91;6272143;22;20053;-70
2023/01/22 05:58:07;;;;;;;10.05;4.72;;;;;;;-140.72;100.00;53369.00;6272942;22;20014;-69
2023/01/22 06:00:33;;;;;;;9.75;5.00;;;;;;;-140.72;100.00;53358.88;6272416;22;20464;-71
2023/01/22 06:03:02;;;;;;;7.30;3.97;;;;;;;-140.72;100.00;53373.06;6273242;22;20353;-70
2023/01/22 06:05:27;;;;;;;12.38;6.10;;;;;;;-140.72;100.00;53352.78;6272284;22;20018;-69
2023/01/22 06:07:52;;;;;;;6.40;4.45;;;;;;;-140.72;100.00;53377.13;6272210;22;20406;-70
2023/01/22 06:10:18;;;;;;;9.18;4.68;;;;;;;-140.72;100.00;53358.88;6273286;22;20006;-69
2023/01/22 06:12:44;;;;;;;8.00;5.28;;;;;;;-140.72;100.00;53364.97;6272585;22;20004;-70
2023/01/22 06:15:10;;;;;;;8.57;5.30;;;;;;;-140.72;100.00;53385.25;6272440;22;19996;-70
2023/01/22 06:17:35;;;;;;;10.27;4.95;;;;;;;-140.72;100.00;53393.38;6272612;22;20008;-69
2023/01/22 06:20:01;;;;;;;12.25;5.53;;;;;;;-140.72;100.00;53399.47;6272776;22;20010;-70
2023/01/22 06:22:26;;;;;;;7.95;4.78;;;;;;;-140.72;100.00;53377.13;6270838;22;20003;-70
2023/01/22 06:24:51;;;;;;;5.97;3.88;;;;;;;-140.72;100.00;53375.09;6272546;22;20082;-69
2023/01/22 06:27:17;;;;;;;8.65;4.32;;;;;;;-140.72;100.00;53364.97;6272727;22;20010;-69
2023/01/22 06:29:45;;;;;;;10.85;4.13;;;;;;;-140.72;100.00;53393.38;6271782;22;20452;-69
2023/01/22 06:32:10;;;;;;;11.20;5.45;;;;;;;-140.72;100.00;53352.78;6245457;22;20086;-69
2023/01/22 06:34:39;;;;;;;9.07;4.43;;;;;;;-140.72;100.00;53373.06;6272403;22;20322;-71
2023/01/22 06:37:05;;;;;;;7.13;4.03;;;;;;;-140.72;100.00;53401.50;6271506;22;20413;-69
2023/01/22 06:39:30;;;;;;;7.72;4.38;;;;;;;-140.72;100.00;53377.13;6272575;22;20049;-69
2023/01/22 06:41:55;;;;;;;6.15;4.03;;;;;;;-140.72;100.00;53367.00;6272596;22;20131;-69
2023/01/22 06:44:22;;;;;;;9.52;5.45;;;;;;;-140.72;100.00;53371.03;6271464;22;20007;-69
2023/01/22 06:46:47;;;;;;;11.18;4.45;;;;;;;-140.72;100.00;53348.72;6271918;22;19999;-69
2023/01/22 06:49:12;;;;;;;7.22;3.67;;;;;;;-140.72;100.00;53358.88;6271046;22;20102;-69
2023/01/22 06:51:38;;;;;;;8.10;4.80;;;;;;;-140.72;100.00;53399.47;6270098;22;20004;-69
2023/01/22 06:54:04;;;;;;;7.00;4.35;;;;;;;-140.72;100.00;53389.31;6271510;22;20003;-69
2023/01/22 06:56:29;;;;;;;6.82;3.22;;;;;;;-140.72;100.00;53387.28;6269801;22;20440;-70
2023/01/22 06:58:54;;;;;;;6.93;3.50;;;;;;;-140.72;100.00;53403.53;6271680;22;20003;-69
2023/01/22 07:01:20;;;;;;;5.60;3.72;;;;;;;-140.72;100.00;53403.53;6271253;22;20429;-69
2023/01/22 07:03:45;;;;;;;7.82;4.70;;;;;;;-140.72;100.00;53389.31;6270146;22;19995;-70
2023/01/22 07:06:17;;;;;;;6.38;3.67;;;;;;;-140.72;100.00;53375.09;6271118;22;20397;-69
2023/01/22 07:08:43;;;;;;;6.10;3.42;;;;;;;-140.72;100.00;53393.38;6270130;22;20310;-70
2023/01/22 07:11:09;;;;;;;4.43;3.50;;;;;;;-140.72;100.00;53373.06;6269994;22;20004;-69
2023/01/22 07:13:34;;;;;;;5.38;3.10;;;;;;;-140.72;100.00;53403.53;6269996;22;20007;-67
2023/01/22 07:16:04;;;;;;;8.90;3.85;;;;;;;-140.72;100.00;53360.91;6269163;22;20377;-67
2023/01/22 07:18:30;;;;;;;7.80;4.22;;;;;;;-140.72;100.00;53379.16;6269027;22;19999;-67
2023/01/22 07:21:00;;;;;;;9.40;4.80;;;;;;;-140.72;100.00;53356.84;6270858;22;20363;-68
2023/01/22 07:23:25;;;;;;;6.18;4.32;;;;;;;-140.72;100.00;53367.00;6269496;22;20023;-69
2023/01/22 07:25:51;;;;;;;9.80;4.20;;;;;;;-140.72;100.00;53352.78;6269237;22;19995;-69
2023/01/22 07:28:16;;;;;;;6.88;3.53;;;;;;;-140.72;100.00;53364.97;6270316;22;20467;-68
2023/01/22 07:30:43;;;;;;;8.88;4.85;;;;;;;-140.72;100.00;53385.25;6269587;22;20007;-68
2023/01/22 07:33:10;;;;;;;4.72;2.90;;;;;;;-140.72;100.00;53367.00;6269913;22;20136;-68
2023/01/22 07:35:35;;;;;;;6.10;3.58;;;;;;;-140.72;100.00;53369.00;6269566;22;20008;-68
2023/01/22 07:38:01;;;;;;;6.45;3.67;;;;;;;-140.72;100.00;53358.88;6270827;22;20014;-67
2023/01/22 07:40:27;;;;;;;7.30;3.67;;;;;;;-140.72;100.00;53377.13;6270041;22;20011;-68
2023/01/22 07:42:54;;;;;;;6.63;4.70;;;;;;;-140.72;100.00;53377.13;6273456;22;20000;-69
2023/01/22 07:45:20;;;;;;;8.27;3.55;;;;;;;-140.72;100.00;53393.38;6270824;22;20093;-69
2023/01/22 07:47:56;;;;;;;5.97;3.70;;;;;;;-140.72;100.00;53371.03;6270863;22;20038;-69
2023/01/22 07:50:23;;;;;;;6.85;4.03;;;;;;;-140.72;100.00;53371.03;6270474;22;20007;-69
2023/01/22 07:52:49;;;;;;;6.57;4.15;;;;;;;-140.72;100.00;53364.97;6269334;22;19995;-69
2023/01/22 07:55:17;;;;;;;8.90;3.78;;;;;;;-140.72;100.00;53373.06;6270297;22;20000;-69
2023/01/22 07:57:43;;;;;;;6.10;3.38;;;;;;;-140.72;100.00;53375.09;6271491;22;19999;-69
2023/01/22 08:00:09;;;;;;;6.63;3.25;;;;;;;-140.72;100.00;53364.97;6270177;22;20425;-69
2023/01/22 08:02:36;;;;;;;5.05;3.22;;;;;;;-140.72;100.00;53364.97;6270424;22;20047;-69
2023/01/22 08:05:03;;;;;;;6.45;4.22;;;;;;;-140.72;100.00;53350.75;6271323;22;20004;-69
2023/01/22 08:07:29;;;;;;;8.52;3.35;;;;;;;-140.72;100.00;53371.03;6269897;22;20015;-70
2023/01/22 08:09:55;;;;;;;10.35;3.38;;;;;;;-140.72;100.00;53350.75;6270952;22;20065;-70
2023/01/22 08:12:21;;;;;;;5.40;3.35;;;;;;;-140.72;100.00;53358.88;6270132;22;20413;-69
2023/01/22 08:14:46;;;;;;;5.10;3.85;;;;;;;-140.72;100.00;53364.97;6270135;22;20052;-69
2023/01/22 08:17:12;;;;;;;6.80;3.50;;;;;;;-140.72;100.00;53312.19;6270396;22;20004;-68
2023/01/22 08:19:37;;;;;;;5.63;4.13;;;;;;;-140.72;100.00;53364.97;6270973;22;20127;-69
2023/01/22 08:22:03;;;;;;;6.18;3.25;;;;;;;-140.72;100.00;53344.66;6269884;22;20472;-69
2023/01/22 08:24:29;;;;;;;5.53;3.08;;;;;;;-140.72;100.00;53377.13;6271023;22;20004;-69
2023/01/22 08:26:55;;;;;;;5.00;2.85;;;;;;;-140.72;100.00;53340.59;6271342;22;20003;-68
2023/01/22 08:29:21;;;;;;;4.05;2.92;;;;;;;-140.72;100.00;53348.72;6269830;22;20049;-69
2023/01/22 08:31:46;;;;;;;5.82;3.13;;;;;;;-140.72;100.00;53395.41;6270453;22;20340;-69
2023/01/22 08:34:12;;;;;;;5.60;3.05;;;;;;;-140.72;100.00;53352.78;6269711;22;20057;-69
2023/01/22 08:36:37;;;;;;;6.40;3.03;;;;;;;-140.72;100.00;53312.19;6269767;22;19999;-68
2023/01/22 08:39:03;;;;;;;8.70;3.67;;;;;;;-140.72;100.00;53316.25;6270921;22;20432;-68
2023/01/22 08:41:28;;;;;;;6.55;3.85;;;;;;;-140.72;100.00;53324.38;6270553;22;20004;-70
2023/01/22 08:43:54;;;;;;;8.00;3.85;;;;;;;-140.72;100.00;53344.66;6270664;22;20027;-68
2023/01/22 08:46:19;;;;;;;4.55;2.78;;;;;;;-140.72;100.00;53314.22;6270934;22;20051;-68
2023/01/22 08:48:45;;;;;;;7.13;3.35;;;;;;;-140.72;100.00;53371.03;6270475;22;20084;-68
2023/01/22 08:51:11;;;;;;;4.80;3.08;;;;;;;-140.72;100.00;53367.00;6270262;22;20356;-69
2023/01/22 08:53:36;;;;;;;8.15;2.90;;;;;;;-140.72;100.00;53340.59;6270543;22;20000;-68
2023/01/22 08:56:01;;;;;;;10.02;2.83;;;;;;;-140.72;100.00;53287.84;6269925;22;20000;-68
2023/01/22 08:58:27;;;;;;;5.38;2.60;;;;;;;-140.72;100.00;53377.13;6270733;22;20007;-68
2023/01/22 09:00:56;;;;;;;4.30;3.10;;;;;;;-140.72;100.00;53373.06;6271721;22;19999;-67
2023/01/22 09:03:21;;;;;;;7.23;3.67;;;;;;;-140.72;100.00;53346.69;6270935;22;20302;-67
2023/01/22 09:05:47;;;;;;;7.72;2.80;;;;;;;-140.72;100.00;53391.34;6270519;22;20003;-68
2023/01/22 09:08:12;;;;;;;6.18;2.95;;;;;;;-140.72;100.00;53316.25;6271038;22;20027;-68
2023/01/22 09:10:38;;;;;;;4.03;2.80;;;;;;;-140.72;100.00;53393.38;6269756;22;19996;-68
2023/01/22 09:13:06;;;;;;;4.75;3.08;;;;;;;-140.72;100.00;53362.94;6271287;22;20027;-68
2023/01/22 09:15:32;;;;;;;7.00;3.85;;;;;;;-140.72;100.00;53312.19;6270362;22;20491;-68
2023/01/22 09:18:00;;;;;;;5.18;2.97;;;;;;;-140.72;100.00;53328.41;6270823;22;20027;-67
2023/01/22 09:20:35;;;;;;;5.60;3.60;;;;;;;-140.72;100.00;53399.47;6270399;22;20408;-68
2023/01/22 09:23:01;;;;;;;6.43;3.95;;;;;;;-140.72;100.00;53344.66;6270848;22;20008;-67
2023/01/22 09:25:28;;;;;;;5.82;3.72;;;;;;;-140.72;100.00;53417.72;6271759;22;20004;-68
2023/01/22 09:28:00;;;;;;;3.50;2.53;;;;;;;-140.72;100.00;53403.53;6272699;22;20387;-68
2023/01/22 09:30:28;;;;;;;5.63;3.80;;;;;;;-140.72;100.00;53352.78;6272630;22;20335;-67
2023/01/22 09:32:54;;;;;;;5.75;3.85;;;;;;;-140.72;100.00;53367.00;6272505;22;20012;-68
2023/01/22 09:35:20;;;;;;;8.38;3.22;;;;;;;-140.72;100.00;53338.56;6271782;22;20012;-68
2023/01/22 09:37:53;;;;;;;8.32;3.80;;;;;;;-140.72;100.00;53371.03;6273115;22;19999;-68
2023/01/22 09:40:43;;;;;;;4.38;3.47;;;;;;;-140.72;100.00;53340.59;6272273;22;20000;-68
2023/01/22 09:43:36;;;;;;;5.65;3.42;;;;;;;-140.72;100.00;53308.13;6245863;22;20031;-68
2023/01/22 09:46:11;;;;;;;6.80;3.53;;;;;;;-140.72;100.00;53332.47;6271796;22;20415;-68
2023/01/22 09:48:52;;;;;;;4.63;3.25;;;;;;;-140.72;100.00;53312.19;6272278;22;20004;-68
2023/01/22 09:51:18;;;;;;;3.80;2.95;;;;;;;-140.72;100.00;53350.75;6272922;22;20000;-68
2023/01/22 09:53:53;;;;;;;8.30;3.45;;;;;;;-140.72;100.00;53352.78;6272588;22;20008;-67
2023/01/22 09:56:22;;;;;;;4.07;3.10;;;;;;;-140.72;100.00;53344.66;6273362;22;20007;-67
2023/01/22 09:58:50;;;;;;;3.72;2.67;;;;;;;-140.72;100.00;53362.94;6272337;22;20011;-69
2023/01/22 10:01:18;;;;;;;7.13;2.88;;;;;;;-140.72;100.00;53354.81;6272385;22;20350;-68
2023/01/22 10:03:53;;;;;;;5.22;3.30;;;;;;;-140.72;100.00;53344.66;6272926;22;19999;-68
2023/01/22 10:06:23;;;;;;;5.03;3.22;;;;;;;-140.72;100.00;53336.53;6271268;22;20420;-68
2023/01/22 10:09:12;;;;;;;5.97;3.80;;;;;;;-140.72;100.00;53344.66;6272787;22;20027;-68
2023/01/22 10:11:41;;;;;;;5.80;3.83;;;;;;;-140.72;100.00;53340.59;6273193;22;20607;-70
2023/01/22 10:14:11;;;;;;;9.32;3.50;;;;;;;-140.72;100.00;53354.81;6271990;22;20026;-69
2023/01/22 10:16:37;;;;;;;5.15;3.30;;;;;;;-140.72;100.00;53338.56;6272179;22;20081;-68
2023/01/22 10:19:10;;;;;;;4.75;3.45;;;;;;;-140.72;100.00;53336.53;6272796;22;20414;-69
2023/01/22 10:21:44;;;;;;;5.28;4.07;;;;;;;-140.72;100.00;53328.41;6272043;22;20042;-69
2023/01/22 10:24:10;;;;;;;7.43;3.20;;;;;;;-140.72;100.00;53332.47;6272708;22;20034;-68
2023/01/22 10:26:50;;;;;;;5.45;3.13;;;;;;;-140.72;100.00;53322.34;6272300;22;20015;-69
2023/01/22 10:29:38;;;;;;;4.65;2.75;;;;;;;-140.72;100.00;53304.06;6271889;22;20004;-70
2023/01/22 10:32:24;;;;;;;5.20;3.30;;;;;;;-140.72;100.00;53300.00;6272467;22;20083;-69
2023/01/22 10:35:01;;;;;;;3.88;2.58;;;;;;;-140.72;100.00;53316.25;6270362;22;20317;-68
2023/01/22 10:37:26;;;;;;;4.38;3.13;;;;;;;-140.72;100.00;53281.75;6272138;22;20031;-68
2023/01/22 10:39:57;;;;;;;6.75;3.22;;;;;;;-140.72;100.00;53316.25;6272652;22;20301;-69
2023/01/22 10:42:24;;;;;;;3.78;2.22;;;;;;;-140.72;100.00;53320.31;6271380;22;20007;-69
2023/01/22 10:44:55;;;;;;;4.72;3.42;;;;;;;-140.72;100.00;53263.47;6271619;22;19995;-68
2023/01/22 10:47:26;;;;;;;3.65;2.60;;;;;;;-140.72;100.00;53257.38;6272768;22;20133;-68
2023/01/22 10:50:03;;;;;;;3.38;2.67;;;;;;;-140.72;100.00;53302.03;6267181;22;20078;-68
2023/01/22 10:52:37;;;;;;;5.95;2.20;;;;;;;-140.72;100.00;53265.50;6271658;22;20023;-67
2023/01/22 10:55:03;;;;;;;4.28;2.17;;;;;;;-140.72;100.00;53312.19;6272495;22;19999;-68
2023/01/22 10:57:32;;;;;;;3.92;2.58;;;;;;;-140.72;100.00;53300.00;6269960;22;20007;-66
2023/01/22 11:00:09;;;;;;;2.92;2.40;;;;;;;-140.72;100.00;53279.72;6270740;22;20007;-67
2023/01/22 11:02:38;;;;;;;4.40;2.05;;;;;;;-140.72;100.00;53346.69;6271582;22;20018;-67
2023/01/22 11:05:26;;;;;;;6.10;2.58;;;;;;;-140.72;100.00;53308.13;6272904;22;20416;-67
2023/01/22 11:08:02;;;;;;;2.72;2.08;;;;;;;-140.72;100.00;53287.84;6271551;22;20000;-68
2023/01/22 11:11:01;;;;;;;3.22;2.70;;;;;;;-140.72;100.00;53316.25;6270442;22;20414;-67
2023/01/22 11:13:44;;;;;;;3.45;2.45;;;;;;;-140.72;100.00;53267.53;6272730;22;20003;-68
2023/01/22 11:16:16;;;;;;;4.53;2.80;;;;;;;-140.72;100.00;53326.41;6271776;22;20015;-67
2023/01/22 11:18:51;;;;;;;4.00;2.67;;;;;;;-140.72;100.00;53324.38;6271841;22;20000;-68